createdAt,value
2022-08-14T00:01:32.394Z,99827.06
2022-08-14T00:03:59.594Z,99820.28
2022-08-14T00:06:29.124Z,99820.38
2022-08-14T00:08:59.182Z,99818.69
2022-08-14T00:11:28.755Z,99811.81
2022-08-14T00:13:59.605Z,99817.69
2022-08-14T00:16:41.576Z,99809.34
2022-08-14T00:19:19.169Z,99798.94
2022-08-14T00:21:50.308Z,99805.75
2022-08-14T00:24:23.318Z,99812.94
2022-08-14T00:26:56.378Z,99811.63
2022-08-14T00:29:25.591Z,99812.78
2022-08-14T00:31:56.261Z,99806.31
2022-08-14T00:34:36.651Z,99806.47
2022-08-14T00:37:11.215Z,99798.81
2022-08-14T00:39:40.632Z,99799.41
2022-08-14T00:42:21.298Z,99790.63
2022-08-14T00:44:56.814Z,99789.88
2022-08-14T00:47:26.984Z,99791.94
2022-08-14T00:49:56.453Z,99795.44
2022-08-14T00:52:25.345Z,99793.50
2022-08-14T00:54:58.026Z,99785.34
2022-08-14T00:57:31.093Z,99787.44
2022-08-14T01:00:00.685Z,99792.56
2022-08-14T01:02:31.920Z,99791.38
2022-08-14T01:05:01.498Z,99788.25
2022-08-14T01:07:47.326Z,99797.16
2022-08-14T01:10:17.988Z,99796.31
2022-08-14T01:12:45.733Z,99796.38
2022-08-14T01:15:17.033Z,99797.72
2022-08-14T01:18:02.852Z,99796.09
2022-08-14T01:20:50.715Z,99798.59
2022-08-14T01:23:18.753Z,99803.75
2022-08-14T01:25:48.911Z,99800.59
2022-08-14T01:28:46.803Z,99803.56
2022-08-14T01:31:08.760Z,99806.31
2022-08-14T01:34:00.142Z,99807.41
2022-08-14T01:36:28.015Z,99807.16
2022-08-14T01:38:59.004Z,99801.88
2022-08-14T01:41:30.138Z,99800.56
2022-08-14T01:44:05.483Z,99799.28
2022-08-14T01:46:57.952Z,99800.00
2022-08-14T01:49:35.290Z,99797.19
2022-08-14T01:52:09.059Z,99806.31
2022-08-14T01:54:40.381Z,99808.19
2022-08-14T01:57:11.661Z,99813.16
2022-08-14T01:59:43.885Z,99807.53
2022-08-14T02:02:14.689Z,99810.31
2022-08-14T02:04:55.800Z,99806.09
2022-08-14T02:07:34.452Z,99815.50
2022-08-14T02:10:15.650Z,99817.37
2022-08-14T02:12:54.292Z,99812.88
2022-08-14T02:15:25.901Z,99812.13
2022-08-14T02:17:53.291Z,99811.91
2022-08-14T02:20:23.939Z,99815.63
2022-08-14T02:22:54.825Z,99819.75
2022-08-14T02:25:22.613Z,99814.22
2022-08-14T02:28:23.365Z,99801.50
2022-08-14T02:30:38.421Z,99809.38
2022-08-14T02:33:07.680Z,99809.22
2022-08-14T02:35:41.671Z,99803.53
2022-08-14T02:38:11.453Z,99813.84
2022-08-14T02:40:39.301Z,99811.41
2022-08-14T02:43:07.858Z,99804.91
2022-08-14T02:45:44.486Z,99802.78
2022-08-14T02:49:04.825Z,99812.44
2022-08-14T02:51:03.992Z,99809.22
2022-08-14T02:53:31.589Z,99811.53
2022-08-14T02:56:03.321Z,99815.16
2022-08-14T02:58:50.951Z,99818.72
2022-08-14T03:01:24.200Z,99819.31
2022-08-14T03:03:58.582Z,99814.22
2022-08-14T03:06:48.784Z,99818.19
2022-08-14T03:09:13.361Z,99823.78
2022-08-14T03:11:44.798Z,99826.56
2022-08-14T03:14:12.512Z,99815.47
2022-08-14T03:16:43.592Z,99819.59
2022-08-14T03:19:11.716Z,99820.78
2022-08-14T03:21:40.674Z,99816.25
2022-08-14T03:24:16.373Z,99814.59
2022-08-14T03:26:50.006Z,99818.66
2022-08-14T03:29:26.313Z,99820.44
2022-08-14T03:31:53.687Z,99820.66
2022-08-14T03:34:24.425Z,99823.88
2022-08-14T03:37:37.889Z,99813.06
2022-08-14T03:40:00.466Z,99816.31
2022-08-14T03:42:31.038Z,99812.28
2022-08-14T03:45:19.678Z,99815.78
2022-08-14T03:47:58.919Z,99817.09
2022-08-14T03:50:30.835Z,99818.56
2022-08-14T03:53:03.496Z,99815.28
2022-08-14T03:55:31.484Z,99819.59
2022-08-14T03:58:00.445Z,99823.91
2022-08-14T04:00:40.429Z,99822.25
2022-08-14T04:03:23.599Z,99815.78
2022-08-14T04:05:51.373Z,99818.63
2022-08-14T04:08:29.354Z,99821.13
2022-08-14T04:11:01.318Z,99817.53
2022-08-14T04:13:31.788Z,99823.22
2022-08-14T04:16:05.395Z,99825.59
2022-08-14T04:18:42.871Z,99831.44
2022-08-14T04:21:11.474Z,99832.25
2022-08-14T04:23:39.738Z,99835.19
2022-08-14T04:26:14.834Z,99825.78
2022-08-14T04:29:06.767Z,99825.31
2022-08-14T04:33:00.248Z,99820.53
2022-08-14T04:34:27.372Z,99814.28
2022-08-14T04:37:22.174Z,99820.41
2022-08-14T04:40:11.251Z,99817.84
2022-08-14T04:42:56.731Z,99817.87
2022-08-14T04:45:25.670Z,99812.81
2022-08-14T04:48:39.086Z,99809.09
2022-08-14T04:51:03.820Z,99803.63
2022-08-14T04:53:34.815Z,99798.62
2022-08-14T04:56:02.506Z,99795.78
2022-08-14T04:58:33.964Z,99798.25
2022-08-14T05:01:03.916Z,99793.59
2022-08-14T05:03:32.713Z,99788.88
2022-08-14T05:06:01.494Z,99804.63
2022-08-14T05:08:50.711Z,99798.62
2022-08-14T05:11:19.993Z,99796.31
2022-08-14T05:14:17.257Z,99803.91
2022-08-14T05:16:33.937Z,99797.84
2022-08-14T05:19:19.161Z,99808.63
2022-08-14T05:21:59.491Z,99816.66
2022-08-14T05:24:34.172Z,99800.12
2022-08-14T05:27:03.402Z,99804.97
2022-08-14T05:29:31.301Z,99800.78
2022-08-14T05:32:01.241Z,99798.22
2022-08-14T05:34:31.594Z,99798.28
2022-08-14T05:37:02.461Z,99799.25
2022-08-14T05:39:31.425Z,99803.37
2022-08-14T05:42:00.677Z,99801.28
2022-08-14T05:44:30.773Z,99807.50
2022-08-14T05:46:59.053Z,99803.72
2022-08-14T05:49:33.446Z,99806.75
2022-08-14T05:52:02.499Z,99797.47
2022-08-14T05:54:35.640Z,99790.31
2022-08-14T05:57:04.949Z,99795.06
2022-08-14T05:59:39.216Z,99785.00
2022-08-14T06:02:11.148Z,99780.66
2022-08-14T06:04:49.451Z,99774.47
2022-08-14T06:07:16.561Z,99775.75
2022-08-14T06:09:43.781Z,99776.34
2022-08-14T06:12:55.087Z,99773.75
2022-08-14T06:15:08.150Z,99775.72
2022-08-14T06:17:56.633Z,99778.50
2022-08-14T06:20:26.717Z,99766.81
2022-08-14T06:22:56.304Z,99770.88
2022-08-14T06:25:25.073Z,99770.63
2022-08-14T06:27:53.232Z,99766.19
2022-08-14T06:30:30.497Z,99772.37
2022-08-14T06:33:13.181Z,99771.66
2022-08-14T06:35:43.192Z,99780.09
2022-08-14T06:38:17.276Z,99778.47
2022-08-14T06:40:45.891Z,99786.03
2022-08-14T06:43:15.462Z,99791.12
2022-08-14T06:45:44.043Z,99791.88
2022-08-14T06:48:24.074Z,99789.22
2022-08-14T06:50:53.140Z,99787.53
2022-08-14T06:53:20.472Z,99788.06
2022-08-14T06:55:58.138Z,99785.00
2022-08-14T06:58:30.889Z,99783.22
2022-08-14T07:01:25.109Z,99777.31
2022-08-14T07:04:23.113Z,99782.16
2022-08-14T07:06:55.666Z,99775.78
2022-08-14T07:09:28.156Z,99769.94
2022-08-14T07:12:09.072Z,99767.25
2022-08-14T07:15:01.042Z,99776.47
2022-08-14T07:17:28.751Z,99776.03
2022-08-14T07:19:58.828Z,99775.06
2022-08-14T07:22:33.007Z,99771.38
2022-08-14T07:25:13.071Z,99772.97
2022-08-14T07:27:40.991Z,99775.94
2022-08-14T07:30:33.798Z,99772.28
2022-08-14T07:32:57.291Z,99769.12
2022-08-14T07:35:24.030Z,99767.97
2022-08-14T07:37:57.172Z,99769.25
2022-08-14T07:40:27.510Z,99774.38
2022-08-14T07:42:56.666Z,99768.44
2022-08-14T07:45:23.873Z,99767.97
2022-08-14T07:47:51.442Z,99762.25
2022-08-14T07:50:21.131Z,99755.63
2022-08-14T07:52:50.251Z,99766.00
2022-08-14T07:55:21.131Z,99762.94
2022-08-14T07:57:48.190Z,99753.94
2022-08-14T08:00:31.221Z,99766.69
2022-08-14T08:03:00.336Z,99765.69
2022-08-14T08:05:28.065Z,99769.31
2022-08-14T08:07:54.892Z,99769.41
2022-08-14T08:10:57.218Z,99765.50
2022-08-14T08:13:24.029Z,99766.53
2022-08-14T08:15:59.706Z,99759.16
2022-08-14T08:18:31.078Z,99756.97
2022-08-14T08:20:59.710Z,99754.69
2022-08-14T08:23:40.023Z,99750.78
2022-08-14T08:26:10.581Z,99752.50
2022-08-14T08:28:37.384Z,99747.72
2022-08-14T08:31:08.261Z,99757.94
2022-08-14T08:33:37.153Z,99742.16
2022-08-14T08:36:07.979Z,99732.44
2022-08-14T08:39:14.738Z,99728.66
2022-08-14T08:41:23.032Z,99735.47
2022-08-14T08:43:51.120Z,99734.37
2022-08-14T08:46:23.991Z,99732.19
2022-08-14T08:48:53.887Z,99734.97
2022-08-14T08:51:51.203Z,99725.00
2022-08-14T08:54:26.421Z,99733.59
2022-08-14T08:56:53.673Z,99727.84
2022-08-14T08:59:31.183Z,99722.19
2022-08-14T09:01:58.770Z,99709.66
2022-08-14T09:04:34.170Z,99719.00
2022-08-14T09:07:10.795Z,99726.63
2022-08-14T09:09:54.442Z,99721.16
2022-08-14T09:12:29.820Z,99708.62
2022-08-14T09:15:02.044Z,99703.56
2022-08-14T09:17:29.415Z,99710.75
2022-08-14T09:19:57.166Z,99708.56
2022-08-14T09:22:34.811Z,99705.56
2022-08-14T09:25:07.364Z,99703.37
2022-08-14T09:27:35.676Z,99702.50
2022-08-14T09:30:12.652Z,99714.03
2022-08-14T09:33:09.179Z,99702.19
2022-08-14T09:36:12.352Z,99708.66
2022-08-14T09:38:55.283Z,99700.19
2022-08-14T09:42:20.722Z,99707.25
2022-08-14T09:44:52.814Z,99705.63
2022-08-14T09:47:19.732Z,99699.31
2022-08-14T09:49:53.185Z,99695.87
2022-08-14T09:52:33.205Z,99696.81
2022-08-14T09:55:00.566Z,99695.87
2022-08-14T09:57:31.549Z,99694.19
2022-08-14T10:00:12.002Z,99688.84
2022-08-14T10:03:05.132Z,99686.41
2022-08-14T10:05:35.151Z,99676.50
2022-08-14T10:08:25.306Z,99678.00
2022-08-14T10:10:57.309Z,99671.78
2022-08-14T10:13:43.010Z,99674.97
2022-08-14T10:16:25.616Z,99666.06
2022-08-14T10:19:10.351Z,99663.22
2022-08-14T10:21:58.189Z,99664.78
2022-08-14T10:24:42.215Z,99662.47
2022-08-14T10:27:19.604Z,99656.84
2022-08-14T10:29:52.735Z,99660.28
2022-08-14T10:32:28.241Z,99646.25
2022-08-14T10:35:14.738Z,99651.28
2022-08-14T10:37:50.256Z,99649.91
2022-08-14T10:40:38.187Z,99662.69
2022-08-14T10:43:16.582Z,99657.25
2022-08-14T10:46:03.531Z,99646.25
2022-08-14T10:48:55.501Z,99650.06
2022-08-14T10:51:30.201Z,99645.47
2022-08-14T10:54:25.994Z,99640.78
2022-08-14T10:56:56.082Z,99640.63
2022-08-14T10:59:30.967Z,99642.87
2022-08-14T11:02:02.331Z,99633.84
2022-08-14T11:04:31.073Z,99628.88
2022-08-14T11:06:58.870Z,99632.41
2022-08-14T11:09:26.642Z,99628.50
2022-08-14T11:12:33.845Z,99626.87
2022-08-14T11:15:02.732Z,99615.72
2022-08-14T11:17:32.727Z,99617.59
2022-08-14T11:20:01.627Z,99619.69
2022-08-14T11:23:03.470Z,99617.19
2022-08-14T11:25:21.283Z,99612.06
2022-08-14T11:27:49.071Z,99609.09
2022-08-14T11:30:50.161Z,99598.06
2022-08-14T11:33:09.095Z,99601.66
2022-08-14T11:35:47.236Z,99598.81
2022-08-14T11:38:17.242Z,99596.69
2022-08-14T11:40:47.265Z,99609.75
2022-08-14T11:43:15.576Z,99603.75
2022-08-14T11:45:48.925Z,99593.28
2022-08-14T11:49:02.470Z,99592.66
2022-08-14T11:51:13.939Z,99585.50
2022-08-14T11:53:42.028Z,99586.25
2022-08-14T11:56:10.947Z,99586.81
2022-08-14T11:58:38.409Z,99577.41
2022-08-14T12:01:09.497Z,99589.28
2022-08-14T12:03:52.393Z,99580.56
2022-08-14T12:06:28.982Z,99576.63
2022-08-14T12:09:08.820Z,99585.91
2022-08-14T12:11:47.601Z,99573.25
2022-08-14T12:14:29.974Z,99572.16
2022-08-14T12:17:12.165Z,99575.16
2022-08-14T12:19:51.283Z,99575.16
2022-08-14T12:22:42.207Z,99575.34
2022-08-14T12:25:15.876Z,99572.59
2022-08-14T12:27:52.481Z,99572.41
2022-08-14T12:30:42.571Z,99568.38
2022-08-14T12:33:30.487Z,99566.91
2022-08-14T12:36:04.486Z,99561.75
2022-08-14T12:38:43.650Z,99559.63
2022-08-14T12:41:21.468Z,99550.25
2022-08-14T12:43:59.756Z,99544.84
2022-08-14T12:46:43.450Z,99549.72
2022-08-14T12:49:15.977Z,99552.91
2022-08-14T12:51:44.802Z,99549.56
2022-08-14T12:54:26.073Z,99542.41
2022-08-14T12:57:04.408Z,99544.72
2022-08-14T12:59:37.240Z,99542.00
2022-08-14T13:02:25.521Z,99545.22
2022-08-14T13:04:56.493Z,99542.94
2022-08-14T13:07:26.422Z,99549.66
2022-08-14T13:09:59.087Z,99542.44
2022-08-14T13:12:32.392Z,99544.66
2022-08-14T13:15:09.005Z,99525.72
2022-08-14T13:17:45.333Z,99528.53
2022-08-14T13:20:23.409Z,99528.63
2022-08-14T13:22:56.261Z,99528.41
2022-08-14T13:25:27.746Z,99525.97
2022-08-14T13:27:57.969Z,99525.94
2022-08-14T13:30:26.433Z,99531.03
2022-08-14T13:32:58.116Z,99519.63
2022-08-14T13:35:27.070Z,99516.69
2022-08-14T13:37:54.237Z,99518.78
2022-08-14T13:40:26.538Z,99524.66
2022-08-14T13:42:57.299Z,99513.25
2022-08-14T13:45:34.083Z,99518.16
2022-08-14T13:48:28.517Z,99508.66
2022-08-14T13:51:03.384Z,99512.03
2022-08-14T13:53:35.203Z,99518.34
2022-08-14T13:56:06.188Z,99515.81
2022-08-14T13:58:35.641Z,99514.97
2022-08-14T14:01:04.481Z,99512.41
2022-08-14T14:03:35.287Z,99509.66
2022-08-14T14:06:03.955Z,99510.09
2022-08-14T14:08:46.723Z,99508.94
2022-08-14T14:11:24.178Z,99503.41
2022-08-14T14:13:57.065Z,99503.66
2022-08-14T14:16:30.397Z,99505.34
2022-08-14T14:19:10.453Z,99501.25
2022-08-14T14:21:40.607Z,99501.75
2022-08-14T14:24:08.325Z,99493.38
2022-08-14T14:26:50.069Z,99499.63
2022-08-14T14:29:19.422Z,99492.78
2022-08-14T14:31:53.502Z,99488.13
2022-08-14T14:34:29.358Z,99493.25
2022-08-14T14:37:03.149Z,99492.75
2022-08-14T14:39:31.410Z,99494.81
2022-08-14T14:42:06.246Z,99494.66
2022-08-14T14:44:40.499Z,99486.59
2022-08-14T14:47:11.672Z,99479.97
2022-08-14T14:49:50.989Z,99478.84
2022-08-14T14:52:27.555Z,99476.69
2022-08-14T14:54:59.288Z,99476.56
2022-08-14T14:57:34.988Z,99469.50
2022-08-14T15:00:02.434Z,99465.91
2022-08-14T15:02:38.267Z,99468.88
2022-08-14T15:05:08.283Z,99478.59
2022-08-14T15:07:36.873Z,99472.66
2022-08-14T15:10:06.708Z,99464.88
2022-08-14T15:12:56.129Z,99465.59
2022-08-14T15:15:23.830Z,99457.38
2022-08-14T15:17:54.697Z,99467.31
2022-08-14T15:20:30.469Z,99469.75
2022-08-14T15:23:11.695Z,99468.34
2022-08-14T15:25:43.960Z,99459.87
2022-08-14T15:28:21.359Z,99469.13
2022-08-14T15:30:57.709Z,99463.12
2022-08-14T15:34:33.412Z,99469.59
2022-08-14T15:36:31.680Z,99467.81
2022-08-14T15:38:59.441Z,99461.06
2022-08-14T15:41:26.852Z,99465.38
2022-08-14T15:44:01.480Z,99468.37
2022-08-14T15:46:42.985Z,99466.53
2022-08-14T15:49:12.770Z,99463.88
2022-08-14T15:51:42.311Z,99456.94
2022-08-14T15:54:11.481Z,99469.19
2022-08-14T15:56:43.033Z,99465.81
2022-08-14T15:59:13.150Z,99462.88
2022-08-14T16:01:54.190Z,99464.25
2022-08-14T16:04:23.776Z,99455.75
2022-08-14T16:06:54.845Z,99452.09
2022-08-14T16:09:23.006Z,99453.50
2022-08-14T16:11:53.939Z,99459.94
2022-08-14T16:14:21.768Z,99454.78
2022-08-14T16:17:00.758Z,99460.59
2022-08-14T16:19:39.836Z,99458.59
2022-08-14T16:22:57.587Z,99460.19
2022-08-14T16:25:02.106Z,99452.66
2022-08-14T16:27:37.166Z,99459.69
2022-08-14T16:30:10.829Z,99457.47
2022-08-14T16:32:55.499Z,99460.63
2022-08-14T16:35:26.387Z,99452.97
2022-08-14T16:37:55.695Z,99457.91
2022-08-14T16:43:04.218Z,99454.13
2022-08-14T16:45:43.737Z,99457.06
2022-08-14T16:48:57.041Z,99460.47
2022-08-14T16:50:58.632Z,99456.03
2022-08-14T16:53:27.714Z,99464.88
2022-08-14T16:56:23.153Z,99455.53
2022-08-14T16:59:30.290Z,99460.81
2022-08-14T17:02:05.128Z,99457.41
2022-08-14T17:04:34.852Z,99460.94
2022-08-14T17:07:13.551Z,99454.13
2022-08-14T17:09:53.147Z,99459.37
2022-08-14T17:12:33.536Z,99449.16
2022-08-14T17:15:15.446Z,99444.75
2022-08-14T17:17:57.772Z,99453.06
2022-08-14T17:20:54.695Z,99453.78
2022-08-14T17:23:12.315Z,99451.56
2022-08-14T17:25:40.490Z,99451.13
2022-08-14T17:28:51.361Z,99454.97
2022-08-14T17:31:07.269Z,99457.56
2022-08-14T17:33:40.859Z,99459.56
2022-08-14T17:36:21.321Z,99461.28
2022-08-14T17:39:08.609Z,99461.94
2022-08-14T17:42:01.961Z,99466.38
2022-08-14T17:44:45.100Z,99465.13
2022-08-14T17:47:18.326Z,99464.97
2022-08-14T17:49:51.982Z,99454.44
2022-08-14T17:52:34.379Z,99468.66
2022-08-14T17:55:05.827Z,99468.78
2022-08-14T17:57:45.393Z,99470.53
2022-08-14T18:00:16.482Z,99473.50
2022-08-14T18:02:50.502Z,99474.72
2022-08-14T18:05:23.506Z,99474.72
2022-08-14T18:08:34.204Z,99468.09
2022-08-14T18:10:56.792Z,99468.22
2022-08-14T18:13:51.890Z,99473.63
2022-08-14T18:16:20.602Z,99468.69
2022-08-14T18:18:50.201Z,99471.94
2022-08-14T18:21:40.673Z,99474.13
2022-08-14T18:24:28.240Z,99471.41
2022-08-14T18:27:01.729Z,99475.66
2022-08-14T18:29:32.143Z,99473.81
2022-08-14T18:32:00.088Z,99470.94
2022-08-14T18:34:37.671Z,99484.06
2022-08-14T18:37:17.417Z,99486.41
2022-08-14T18:40:01.120Z,99493.25
2022-08-14T18:42:50.830Z,99484.81
2022-08-14T18:45:28.508Z,99495.84
2022-08-14T18:48:15.981Z,99496.06
2022-08-14T18:50:54.243Z,99508.72
2022-08-14T18:53:34.204Z,99512.00
2022-08-14T18:56:10.122Z,99509.06
2022-08-14T18:58:56.850Z,99521.41
2022-08-14T19:01:29.792Z,99523.72
2022-08-14T19:03:59.537Z,99526.84
2022-08-14T19:06:40.619Z,99531.50
2022-08-14T19:09:07.790Z,99528.66
2022-08-14T19:11:38.056Z,99531.25
2022-08-14T19:14:06.810Z,99522.72
2022-08-14T19:16:35.117Z,99523.72
2022-08-14T19:19:05.106Z,99526.56
2022-08-14T19:21:43.705Z,99525.56
2022-08-14T19:24:27.494Z,99525.34
2022-08-14T19:27:24.193Z,99522.22
2022-08-14T19:30:20.289Z,99521.09
2022-08-14T19:32:52.176Z,99528.91
2022-08-14T19:35:49.351Z,99522.78
2022-08-14T19:38:53.805Z,99517.53
2022-08-14T19:41:29.593Z,99512.38
2022-08-14T19:44:15.111Z,99513.50
2022-08-14T19:47:01.812Z,99519.78
2022-08-14T19:50:24.334Z,99518.41
2022-08-14T19:52:22.776Z,99527.72
2022-08-14T19:54:51.198Z,99526.53
2022-08-14T19:57:23.128Z,99523.69
2022-08-14T19:59:59.456Z,99530.78
2022-08-14T20:02:30.073Z,99528.22
2022-08-14T20:05:03.833Z,99523.56
2022-08-14T20:07:58.911Z,99524.56
2022-08-14T20:11:03.834Z,99518.91
2022-08-14T20:13:32.172Z,99513.50
2022-08-14T20:16:12.072Z,99509.69
2022-08-14T20:18:49.271Z,99508.13
2022-08-14T20:21:16.596Z,99517.38
2022-08-14T20:23:43.471Z,99508.09
2022-08-14T20:26:31.321Z,99519.06
2022-08-14T20:29:04.427Z,99514.91
2022-08-14T20:31:36.536Z,99516.38
2022-08-14T20:34:06.213Z,99517.34
2022-08-14T20:36:39.019Z,99522.34
2022-08-14T20:39:15.023Z,99523.19
2022-08-14T20:41:48.905Z,99516.34
2022-08-14T20:44:41.459Z,99510.75
2022-08-14T20:47:15.434Z,99511.38
2022-08-14T20:49:42.746Z,99509.91
2022-08-14T20:52:19.931Z,99508.53
2022-08-14T20:54:51.188Z,99513.47
2022-08-14T20:57:19.070Z,99506.13
2022-08-14T20:59:53.609Z,99507.31
2022-08-14T21:02:38.574Z,99506.13
2022-08-14T21:05:19.584Z,99502.31
2022-08-14T21:07:51.305Z,99502.31
2022-08-14T21:10:35.826Z,99498.75
2022-08-14T21:14:17.840Z,99500.50
2022-08-14T21:16:34.510Z,99496.34
2022-08-14T21:18:58.331Z,99504.13
2022-08-14T21:21:41.312Z,99508.41
2022-08-14T21:24:38.580Z,99505.34
2022-08-14T21:27:12.371Z,99506.69
2022-08-14T21:29:54.366Z,99511.47
2022-08-14T21:32:33.773Z,99506.31
2022-08-14T21:35:08.547Z,99504.38
2022-08-14T21:37:43.786Z,99513.78
2022-08-14T21:40:29.591Z,99506.25
2022-08-14T21:43:01.393Z,99504.38
2022-08-14T21:45:28.131Z,99509.97
2022-08-14T21:47:56.475Z,99505.72
2022-08-14T21:50:56.367Z,99499.72
2022-08-14T21:53:13.662Z,99491.84
2022-08-14T21:55:42.567Z,99502.75
2022-08-14T21:58:52.016Z,99501.88
2022-08-14T22:00:58.017Z,99502.84
2022-08-14T22:03:26.499Z,99500.38
2022-08-14T22:06:04.195Z,99501.91
2022-08-14T22:08:30.913Z,99498.53
2022-08-14T22:11:00.338Z,99501.31
2022-08-14T22:13:32.404Z,99497.34
2022-08-14T22:16:02.341Z,99501.47
2022-08-14T22:18:29.967Z,99501.78
2022-08-14T22:20:57.351Z,99509.28
2022-08-14T22:23:25.803Z,99507.66
2022-08-14T22:25:54.819Z,99512.00
2022-08-14T22:28:32.465Z,99508.50
2022-08-14T22:31:02.365Z,99517.66
2022-08-14T22:33:31.161Z,99520.47
2022-08-14T22:36:00.284Z,99515.66
2022-08-14T22:38:36.309Z,99507.03
2022-08-14T22:41:27.781Z,99505.91
2022-08-14T22:43:57.115Z,99498.41
2022-08-14T22:46:27.048Z,99509.03
2022-08-14T22:48:54.390Z,99505.91
2022-08-14T22:51:26.191Z,99502.25
2022-08-14T22:53:56.319Z,99495.72
2022-08-14T22:56:29.461Z,99500.84
2022-08-14T22:58:59.436Z,99503.75
2022-08-14T23:01:56.273Z,99502.91
2022-08-14T23:04:35.371Z,99496.88
2022-08-14T23:07:21.611Z,99504.38
2022-08-14T23:10:33.340Z,99501.84
2022-08-14T23:12:54.385Z,99504.94
2022-08-14T23:15:23.430Z,99509.97
2022-08-14T23:17:50.539Z,99514.03
2022-08-14T23:20:21.145Z,99510.09
2022-08-14T23:22:53.301Z,99509.97
2022-08-14T23:25:44.641Z,99512.31
2022-08-14T23:28:34.939Z,99509.00
2022-08-14T23:31:08.150Z,99507.59
2022-08-14T23:33:36.905Z,99498.31
2022-08-14T23:36:31.638Z,99503.94
2022-08-14T23:39:00.437Z,99509.66
2022-08-14T23:41:27.251Z,99495.41
2022-08-14T23:44:15.326Z,99500.00
2022-08-14T23:46:44.220Z,99494.84
2022-08-14T23:49:12.558Z,99489.87
2022-08-14T23:51:39.588Z,99494.00
2022-08-14T23:54:48.714Z,99486.44
2022-08-14T23:57:03.093Z,99497.03
2022-08-14T23:59:31.785Z,99488.19
